Time;durP1;ratioP1;P1;durP2;ratioP2;P2;SDS_P1;SDS_P2;PMS_P1;PMS_P2;Temp;Humidity;BMP_temperature;BMP_pressure;BME280_temperature;BME280_humidity;BME280_pressure;Samples;Min_cycle;Max_cycle;Signal;HPM_P1;HPM_P2
2021/03/16 00:00:45;;;;;;;17.30;12.35;;;;;;;10.62;53.30;99137.66;1724071;83;21167;-54
2021/03/16 00:03:32;;;;;;;17.48;10.85;;;;;;;10.66;53.08;99136.66;1714196;82;21161;-62
2021/03/16 00:06:10;;;;;;;19.17;11.00;;;;;;;10.74;53.13;99127.18;1831326;77;22144;-61
2021/03/16 00:08:38;;;;;;;16.35;11.60;;;;;;;10.73;53.05;99132.04;1761200;80;21103;-61
2021/03/16 00:11:07;;;;;;;17.87;12.33;;;;;;;10.75;52.93;99130.69;1761323;81;21134;-54
2021/03/16 00:13:35;;;;;;;17.15;12.23;;;;;;;10.75;52.85;99126.27;1741036;80;21304;-54
2021/03/16 00:16:03;;;;;;;19.80;12.55;;;;;;;10.75;52.92;99122.33;1736601;80;21143;-62
2021/03/16 00:18:32;;;;;;;21.27;13.53;;;;;;;10.76;52.96;99123.20;1761841;81;21115;-59
2021/03/16 00:21:00;;;;;;;18.87;13.25;;;;;;;10.77;53.03;99125.77;1755381;80;21139;-62
2021/03/16 00:23:28;;;;;;;18.57;12.47;;;;;;;9.93;54.82;99144.58;1733209;81;21154;-62
2021/03/16 00:25:56;;;;;;;16.82;12.28;;;;;;;9.76;55.05;99160.81;1746116;80;21543;-54
2021/03/16 00:28:24;;;;;;;19.35;11.88;;;;;;;10.38;53.53;99152.42;1762036;81;21170;-62
2021/03/16 00:30:52;;;;;;;17.80;13.10;;;;;;;10.58;52.87;99160.19;1752525;80;21276;-62
2021/03/16 00:33:20;;;;;;;21.12;13.10;;;;;;;10.56;52.64;99161.09;1731636;81;21223;-54
2021/03/16 00:35:49;;;;;;;19.60;11.85;;;;;;;10.49;52.74;99138.52;1732797;81;21130;-54
2021/03/16 00:38:17;;;;;;;16.07;11.35;;;;;;;10.50;53.00;99132.78;1699482;83;21631;-54
2021/03/16 00:40:44;;;;;;;17.77;12.05;;;;;;;10.53;53.11;99137.95;1704232;83;21187;-54
2021/03/16 00:43:13;;;;;;;18.87;11.85;;;;;;;10.54;53.02;99144.50;1712058;82;21196;-54
2021/03/16 00:45:41;;;;;;;16.57;11.55;;;;;;;10.54;52.80;99147.56;1697140;84;21171;-61
2021/03/16 00:48:15;;;;;;;20.25;11.65;;;;;;;10.53;52.75;99144.53;1700795;82;21183;-63
2021/03/16 00:50:45;;;;;;;16.52;11.50;;;;;;;10.49;52.72;99146.41;1698916;83;21186;-63
2021/03/16 00:53:13;;;;;;;17.23;10.90;;;;;;;10.47;52.66;99137.70;1710075;83;21162;-63
2021/03/16 00:55:43;;;;;;;19.77;12.18;;;;;;;10.44;52.66;99127.72;1725771;83;21170;-55
2021/03/16 00:58:11;;;;;;;17.65;11.80;;;;;;;10.37;52.66;99128.34;1723648;82;21162;-62
2021/03/16 01:00:39;;;;;;;15.48;11.55;;;;;;;10.31;52.59;99131.16;1725709;83;21488;-61
2021/03/16 01:03:10;;;;;;;15.80;11.15;;;;;;;10.29;52.51;99129.91;1700823;83;21174;-54
2021/03/16 01:05:38;;;;;;;17.07;11.22;;;;;;;10.22;52.46;99125.74;1691896;84;21308;-63
2021/03/16 01:08:06;;;;;;;20.57;12.37;;;;;;;10.16;52.40;99117.57;1710893;83;21281;-63
2021/03/16 01:10:34;;;;;;;18.42;11.73;;;;;;;10.12;52.58;99115.50;1715324;83;21202;-54
2021/03/16 01:13:02;;;;;;;17.20;11.90;;;;;;;10.09;52.79;99105.08;1689539;83;21139;-54
2021/03/16 01:15:31;;;;;;;17.52;11.55;;;;;;;10.11;52.93;99103.73;1690716;83;21199;-63
2021/03/16 01:17:59;;;;;;;17.40;11.55;;;;;;;10.13;52.98;99107.17;1703439;83;21188;-63
2021/03/16 01:20:27;;;;;;;15.48;11.63;;;;;;;10.15;53.15;99104.48;1705681;83;21131;-63
2021/03/16 01:22:55;;;;;;;17.87;12.50;;;;;;;10.18;53.18;99097.82;1708506;84;21626;-63
2021/03/16 01:25:23;;;;;;;18.12;12.03;;;;;;;10.18;53.24;99093.41;1705884;83;21317;-62
2021/03/16 01:27:50;;;;;;;18.55;12.28;;;;;;;10.20;53.19;99094.69;1716643;83;21594;-63
2021/03/16 01:30:19;;;;;;;20.45;12.40;;;;;;;10.20;53.38;99090.74;1717024;83;21181;-55
2021/03/16 01:32:48;;;;;;;17.73;12.47;;;;;;;10.22;53.24;99079.73;1717603;82;21167;-56
2021/03/16 01:35:16;;;;;;;17.45;12.13;;;;;;;10.19;53.37;99074.56;1702733;83;21131;-55
2021/03/16 01:37:44;;;;;;;18.52;11.88;;;;;;;10.19;53.39;99076.72;1704572;83;21170;-63
2021/03/16 01:40:15;;;;;;;17.60;12.13;;;;;;;10.21;53.54;99078.00;1717650;83;21194;-54
2021/03/16 01:42:44;;;;;;;18.00;12.30;;;;;;;10.24;53.58;99066.08;1716899;82;21522;-54
2021/03/16 01:45:16;;;;;;;18.35;12.80;;;;;;;10.27;53.24;99062.87;1694307;83;21175;-54
2021/03/16 01:47:47;;;;;;;;;;;;;;;10.24;53.17;99071.34;1702767;83;21549;-54
2021/03/16 01:50:18;;;;;;;17.90;11.60;;;;;;;10.20;52.76;99070.55;1717646;83;20268;-54
2021/03/16 01:52:47;;;;;;;17.98;12.15;;;;;;;10.15;52.80;99069.87;1715667;82;21204;-54
2021/03/16 01:55:15;;;;;;;15.55;12.10;;;;;;;10.10;52.68;99070.46;1717907;83;21210;-55
2021/03/16 01:57:44;;;;;;;17.57;11.88;;;;;;;10.05;52.97;99069.74;1717176;83;21167;-63
2021/03/16 02:00:37;;;;;;;21.40;13.48;;;;;;;10.04;53.12;99075.91;1696009;83;21639;-63
2021/03/16 02:03:26;;;;;;;15.45;11.60;;;;;;;10.03;53.19;99067.61;1689583;83;21143;-63
2021/03/16 02:06:17;;;;;;;17.35;12.40;;;;;;;10.01;53.10;99068.11;1689472;83;21151;-53
2021/03/16 02:09:16;;;;;;;18.48;11.93;;;;;;;10.00;52.98;99058.50;1688997;85;21179;-63
2021/03/16 02:12:06;;;;;;;19.10;12.98;;;;;;;9.97;53.04;99059.44;1691251;83;21585;-63
2021/03/16 02:15:00;;;;;;;20.85;13.28;;;;;;;9.97;53.08;99069.52;1715051;83;21184;-60
2021/03/16 02:17:50;;;;;;;18.60;12.50;;;;;;;9.99;53.20;99074.72;1705472;84;21208;-63
2021/03/16 02:21:09;;;;;;;16.45;11.55;;;;;;;10.02;53.35;99073.31;1704362;83;21731;-63
2021/03/16 02:24:27;;;;;;;17.27;11.70;;;;;;;10.06;53.44;99068.36;1706956;84;21167;-54
2021/03/16 02:27:18;;;;;;;17.75;11.93;;;;;;;10.09;53.40;99066.95;1712464;82;21217;-63
2021/03/16 02:30:06;;;;;;;16.48;12.00;;;;;;;10.12;53.29;99072.59;1696192;83;21333;-63
2021/03/16 02:32:53;;;;;;;20.37;12.65;;;;;;;10.13;53.13;99078.25;1689466;84;21159;-63
2021/03/16 02:35:41;;;;;;;16.40;10.72;;;;;;;10.15;53.15;99068.98;1712570;84;21174;-54
2021/03/16 02:38:30;;;;;;;16.17;11.70;;;;;;;10.12;52.86;99060.29;1705023;83;21689;-54
2021/03/16 02:41:17;;;;;;;17.30;12.23;;;;;;;10.08;52.75;99060.45;1684136;84;21301;-55
2021/03/16 02:44:05;;;;;;;18.95;11.22;;;;;;;10.06;52.80;99070.99;1684107;85;21187;-54
2021/03/16 02:46:52;;;;;;;16.80;11.20;;;;;;;10.04;52.62;99082.48;1687458;84;21179;-54
2021/03/16 02:49:42;;;;;;;15.85;10.85;;;;;;;10.06;52.84;99092.02;1712188;84;21132;-55
2021/03/16 02:52:28;;;;;;;16.90;11.18;;;;;;;10.07;52.96;99087.17;1690034;84;21659;-54
2021/03/16 02:55:15;;;;;;;16.70;11.18;;;;;;;10.08;53.07;99084.95;1660905;85;21345;-54
2021/03/16 02:58:01;;;;;;;16.67;11.63;;;;;;;10.13;52.82;99071.69;1694758;82;21150;-54
2021/03/16 03:00:47;;;;;;;16.12;10.58;;;;;;;10.17;52.82;99088.20;1664142;84;21159;-54
2021/03/16 03:03:35;;;;;;;16.67;11.88;;;;;;;10.17;52.98;99081.16;1740229;82;21131;-63
2021/03/16 03:06:21;;;;;;;15.28;10.85;;;;;;;10.17;52.88;99086.42;1736524;81;21602;-54
2021/03/16 03:09:11;;;;;;;18.07;11.35;;;;;;;10.17;52.60;99082.95;1731031;82;21151;-63
2021/03/16 03:11:57;;;;;;;16.57;11.43;;;;;;;10.12;52.33;99069.96;1739631;81;21161;-63
2021/03/16 03:14:43;;;;;;;16.15;11.73;;;;;;;10.07;52.70;99078.44;1743450;81;21124;-54
2021/03/16 03:17:29;;;;;;;17.02;10.95;;;;;;;10.09;52.88;99079.26;1731108;82;21131;-63
2021/03/16 03:20:16;;;;;;;19.12;10.98;;;;;;;10.11;52.82;99073.50;1747689;82;21143;-55
2021/03/16 03:23:13;;;;;;;16.62;11.15;;;;;;;10.13;52.88;99075.62;1747836;81;21185;-63
2021/03/16 03:26:18;;;;;;;17.12;11.53;;;;;;;10.14;52.89;99085.67;1718668;82;21162;-63
2021/03/16 03:29:04;;;;;;;14.98;10.20;;;;;;;10.14;52.91;99087.86;1744956;82;21139;-54
2021/03/16 03:31:50;;;;;;;16.15;10.25;;;;;;;10.16;52.86;99084.70;1753366;81;21569;-54
2021/03/16 03:34:38;;;;;;;14.55;10.35;;;;;;;10.15;52.85;99073.81;1747232;82;21095;-63
2021/03/16 03:37:25;;;;;;;15.72;10.75;;;;;;;10.12;52.92;99072.59;1746937;82;21261;-63
2021/03/16 03:40:13;;;;;;;14.55;10.53;;;;;;;10.12;52.85;99060.76;1748443;82;21140;-64
2021/03/16 03:43:01;;;;;;;15.78;10.32;;;;;;;10.10;52.94;99066.05;1732394;81;21304;-63
2021/03/16 03:45:51;;;;;;;17.57;11.95;;;;;;;10.08;52.89;99071.81;1723898;82;21151;-54
2021/03/16 03:48:37;;;;;;;16.00;10.25;;;;;;;10.04;52.68;99071.49;1745920;82;21163;-56
2021/03/16 03:51:23;;;;;;;15.63;11.03;;;;;;;10.00;52.49;99069.02;1741650;81;21188;-63
2021/03/16 03:54:09;;;;;;;15.30;10.60;;;;;;;9.94;52.84;99067.42;1718846;83;21139;-54
2021/03/16 03:56:56;;;;;;;16.48;10.45;;;;;;;9.92;52.89;99073.21;1718444;82;21189;-63
2021/03/16 03:59:45;;;;;;;15.45;10.63;;;;;;;9.91;52.96;99067.55;1731936;82;21171;-63
2021/03/16 04:02:31;;;;;;;16.85;10.25;;;;;;;9.94;52.92;99075.30;1718445;82;21163;-63
2021/03/16 04:05:17;;;;;;;15.95;11.33;;;;;;;9.93;52.93;99075.77;1703253;83;21118;-64
2021/03/16 04:08:04;;;;;;;20.20;11.30;;;;;;;9.90;52.83;99069.30;1753906;82;21591;-63
2021/03/16 04:10:50;;;;;;;21.45;11.05;;;;;;;9.87;52.86;99068.08;1733686;81;21744;-54
2021/03/16 04:13:36;;;;;;;19.55;11.08;;;;;;;9.88;53.36;99068.95;1734392;82;21136;-63
2021/03/16 04:16:22;;;;;;;18.77;11.28;;;;;;;9.88;53.16;99064.54;1753751;82;21156;-54
2021/03/16 04:19:10;;;;;;;19.35;11.70;;;;;;;9.88;53.06;99068.95;1742564;82;21119;-55
2021/03/16 04:21:55;;;;;;;18.60;11.60;;;;;;;9.87;53.27;99058.03;1725478;82;21507;-55
2021/03/16 04:24:41;;;;;;;20.35;11.65;;;;;;;9.87;53.29;99057.56;1752935;82;21166;-63
2021/03/16 04:27:27;;;;;;;17.52;10.63;;;;;;;9.88;53.52;99048.77;1780504;80;21181;-63
2021/03/16 04:30:14;;;;;;;18.73;10.88;;;;;;;9.90;53.33;99053.53;1723715;83;21163;-56
2021/03/16 04:33:00;;;;;;;17.95;11.12;;;;;;;9.90;53.35;99052.68;1735964;80;21578;-54
2021/03/16 04:35:47;;;;;;;22.55;12.20;;;;;;;9.88;53.17;99050.09;1739528;82;21143;-55
2021/03/16 04:38:34;;;;;;;19.90;12.73;;;;;;;9.81;53.20;99034.09;1729602;81;21673;-63
2021/03/16 04:41:19;;;;;;;17.25;11.60;;;;;;;9.78;53.60;99027.17;1739301;80;21161;-63
2021/03/16 04:44:06;;;;;;;20.72;11.05;;;;;;;9.81;53.39;99031.03;1734512;81;21685;-64
2021/03/16 04:46:52;;;;;;;19.80;11.63;;;;;;;9.79;53.39;99033.28;1743761;81;21118;-63
2021/03/16 04:49:40;;;;;;;19.07;10.05;;;;;;;9.76;53.62;99030.74;1711539;84;21569;-55
2021/03/16 04:52:26;;;;;;;21.48;11.15;;;;;;;9.75;53.46;99023.33;1748680;82;21135;-63
2021/03/16 04:55:13;;;;;;;16.50;10.60;;;;;;;9.76;53.57;99025.48;1699209;84;21617;-55
2021/03/16 04:57:59;;;;;;;18.82;11.68;;;;;;;9.77;53.87;99024.14;1753757;82;21145;-64
2021/03/16 05:00:45;;;;;;;21.70;12.00;;;;;;;9.85;53.92;99025.68;1750912;82;21179;-63
2021/03/16 05:03:31;;;;;;;23.50;11.63;;;;;;;9.90;54.17;99030.34;1747110;82;21167;-54
2021/03/16 05:06:18;;;;;;;22.20;12.10;;;;;;;9.94;53.89;99020.11;1756575;81;21174;-62
2021/03/16 05:09:04;;;;;;;19.12;11.48;;;;;;;9.95;54.02;99023.14;1725447;83;21259;-55
2021/03/16 05:11:50;;;;;;;17.02;11.53;;;;;;;9.94;53.99;99022.30;1704552;83;21172;-54
2021/03/16 05:14:36;;;;;;;18.77;13.32;;;;;;;9.98;53.81;99021.73;1691069;84;21142;-55
2021/03/16 05:17:22;;;;;;;24.30;13.43;;;;;;;10.03;54.37;99021.61;1719079;83;21293;-64
2021/03/16 05:20:10;;;;;;;18.65;12.25;;;;;;;10.12;54.33;99021.32;1700593;84;21163;-63
2021/03/16 05:22:57;;;;;;;18.82;13.13;;;;;;;10.17;54.12;99017.22;1685051;84;21353;-56
2021/03/16 05:25:43;;;;;;;16.62;11.78;;;;;;;10.20;54.34;99019.75;1679209;85;21203;-63
2021/03/16 05:28:29;;;;;;;17.82;11.50;;;;;;;10.25;54.50;99023.09;1678932;85;21192;-55
2021/03/16 05:31:16;;;;;;;18.70;11.95;;;;;;;10.36;54.67;99020.98;1705152;84;21762;-54
2021/03/16 05:34:03;;;;;;;18.17;12.43;;;;;;;10.47;54.71;99016.70;1696233;84;21153;-55
2021/03/16 05:36:49;;;;;;;18.25;12.75;;;;;;;10.58;54.68;99009.75;1707753;84;21629;-63
2021/03/16 05:39:36;;;;;;;20.60;12.28;;;;;;;10.67;54.43;99012.06;1725573;83;21135;-63
2021/03/16 05:42:24;;;;;;;18.15;12.13;;;;;;;10.75;54.48;99013.58;1719605;82;21285;-63
2021/03/16 05:45:12;;;;;;;15.95;10.63;;;;;;;10.85;54.60;99009.24;1725370;83;21629;-63
2021/03/16 05:47:59;;;;;;;18.87;11.70;;;;;;;10.94;54.62;99004.09;1725725;82;21186;-55
2021/03/16 05:50:46;;;;;;;17.23;11.38;;;;;;;11.04;54.60;99009.04;1711010;83;21138;-56
2021/03/16 05:53:32;;;;;;;15.53;10.60;;;;;;;11.14;54.42;99007.80;1723163;83;21199;-54
2021/03/16 05:56:18;;;;;;;17.32;11.00;;;;;;;11.23;54.41;99019.76;1724718;82;21762;-54
2021/03/16 05:59:04;;;;;;;17.23;11.38;;;;;;;11.30;54.41;99032.63;1689341;83;21138;-62
2021/03/16 06:01:50;;;;;;;18.90;11.28;;;;;;;11.39;54.33;99031.45;1696020;83;21130;-54
2021/03/16 06:04:39;;;;;;;18.00;10.50;;;;;;;11.47;54.34;99028.52;1705619;84;21204;-54
2021/03/16 06:07:25;;;;;;;18.57;10.60;;;;;;;11.55;54.15;99031.73;1699270;83;21171;-62
2021/03/16 06:10:12;;;;;;;17.98;10.58;;;;;;;11.60;54.18;99019.69;1719925;81;21135;-63
2021/03/16 06:13:12;;;;;;;18.80;10.75;;;;;;;11.66;53.92;99018.61;1683834;84;21151;-62
2021/03/16 06:16:17;;;;;;;16.37;10.72;;;;;;;11.71;53.87;99006.97;1718710;82;21186;-64
2021/03/16 06:19:05;;;;;;;17.42;11.65;;;;;;;11.78;53.76;98998.34;1738394;82;21144;-55
2021/03/16 06:22:06;;;;;;;17.92;11.00;;;;;;;11.85;53.35;98998.98;1745020;81;21154;-55
2021/03/16 06:24:52;;;;;;;17.90;11.18;;;;;;;11.88;52.93;99003.66;1746447;82;21163;-63
2021/03/16 06:27:38;;;;;;;16.57;11.08;;;;;;;11.90;52.67;99010.20;1739794;81;21127;-55
2021/03/16 06:30:25;;;;;;;19.00;12.37;;;;;;;11.92;52.63;99012.33;1718522;83;21733;-55
2021/03/16 06:33:21;;;;;;;20.30;12.15;;;;;;;11.94;52.64;99018.84;1718478;82;21204;-63
2021/03/16 06:36:08;;;;;;;18.40;12.00;;;;;;;11.95;52.58;99011.33;1731164;81;21238;-63
2021/03/16 06:38:55;;;;;;;19.10;12.03;;;;;;;12.00;52.89;99018.63;1735270;82;21116;-56
2021/03/16 06:41:40;;;;;;;17.00;10.60;;;;;;;12.07;53.04;99013.95;1744131;82;21127;-55
2021/03/16 06:44:27;;;;;;;17.35;11.15;;;;;;;12.14;52.56;99008.84;1743452;81;21191;-63
2021/03/16 06:47:14;;;;;;;19.42;10.43;;;;;;;12.22;52.42;99012.47;1719195;82;21556;-63
2021/03/16 06:50:01;;;;;;;14.40;11.03;;;;;;;12.30;52.22;99007.30;1682529;85;21692;-63
2021/03/16 06:52:49;;;;;;;21.95;11.18;;;;;;;12.40;52.00;98999.84;1733617;81;21277;-54
2021/03/16 06:55:35;;;;;;;16.27;10.95;;;;;;;12.50;51.91;98989.75;1728336;82;21280;-54
2021/03/16 06:58:31;;;;;;;14.13;10.15;;;;;;;12.58;51.58;98988.13;1664777;85;21139;-63
2021/03/16 07:01:17;;;;;;;15.30;10.03;;;;;;;12.67;51.50;98994.31;1737716;81;21379;-57
2021/03/16 07:04:17;;;;;;;14.93;10.30;;;;;;;12.79;51.42;98996.42;1734862;81;21595;-56
2021/03/16 07:07:03;;;;;;;17.32;10.85;;;;;;;12.91;51.25;98992.38;1754180;81;21198;-62
2021/03/16 07:09:50;;;;;;;55.00;13.55;;;;;;;13.01;50.90;98978.77;1755086;80;21123;-64
2021/03/16 07:12:36;;;;;;;25.27;10.25;;;;;;;13.08;50.68;98975.77;1758354;81;21550;-55
2021/03/16 07:15:23;;;;;;;16.05;9.98;;;;;;;13.15;50.13;98963.17;1733547;81;21256;-64
2021/03/16 07:18:10;;;;;;;15.83;9.90;;;;;;;13.21;50.15;98954.09;1747030;80;21115;-56
2021/03/16 07:20:58;;;;;;;15.72;10.40;;;;;;;13.30;50.14;98953.67;1672366;84;21245;-56
2021/03/16 07:23:54;;;;;;;15.60;9.88;;;;;;;13.42;50.06;98954.07;1677608;85;21589;-64
2021/03/16 07:26:40;;;;;;;14.23;10.25;;;;;;;13.54;49.83;98952.15;1685180;84;21199;-55
2021/03/16 07:29:26;;;;;;;14.98;10.78;;;;;;;13.65;49.72;98955.14;1725608;82;21592;-56
2021/03/16 07:32:14;;;;;;;15.48;10.82;;;;;;;13.81;49.77;98951.77;1725439;83;21146;-55
2021/03/16 07:35:02;;;;;;;14.33;10.32;;;;;;;14.01;49.34;98941.54;1725352;83;21154;-64
2021/03/16 07:37:49;;;;;;;17.75;9.85;;;;;;;14.22;49.00;98944.03;1679937;84;21215;-57
2021/03/16 07:40:39;;;;;;;14.05;10.40;;;;;;;14.39;48.61;98936.10;1707824;84;21166;-64
2021/03/16 07:43:38;;;;;;;17.30;10.80;;;;;;;14.55;48.17;98934.84;1725195;83;21179;-55
2021/03/16 07:46:24;;;;;;;19.05;10.45;;;;;;;14.65;47.91;98935.69;1697776;83;21712;-64
2021/03/16 07:49:14;;;;;;;19.25;10.38;;;;;;;14.72;47.40;98935.79;1717346;83;21174;-56
2021/03/16 07:52:01;;;;;;;15.65;10.85;;;;;;;14.77;47.10;98936.86;1702578;83;21175;-64
2021/03/16 07:54:52;;;;;;;20.92;14.85;;;;;;;14.77;46.86;98930.23;1677564;84;21126;-55
2021/03/16 07:57:38;;;;;;;31.30;19.23;;;;;;;14.83;46.92;98927.27;1682111;84;21587;-63
2021/03/16 08:00:49;;;;;;;25.75;15.85;;;;;;;14.90;46.82;98931.31;1707171;84;21142;-56
2021/03/16 08:03:36;;;;;;;20.15;13.30;;;;;;;14.99;46.67;98927.30;1685069;85;21621;-55
2021/03/16 08:06:28;;;;;;;20.35;14.35;;;;;;;15.10;46.32;98923.61;1733079;81;21141;-55
2021/03/16 08:09:22;;;;;;;21.17;15.60;;;;;;;15.22;46.22;98923.41;1730170;82;21132;-65
2021/03/16 08:12:27;;;;;;;18.55;13.72;;;;;;;15.35;45.91;98918.76;1730814;82;21141;-64
2021/03/16 08:15:17;;;;;;;22.73;14.40;;;;;;;15.45;45.44;98915.98;1733380;81;21149;-56
2021/03/16 08:18:05;;;;;;;16.55;12.58;;;;;;;15.54;45.23;98913.28;1726409;83;21176;-63
2021/03/16 08:20:52;;;;;;;16.17;12.47;;;;;;;15.61;45.24;98916.81;1731048;83;21196;-55
2021/03/16 08:23:39;;;;;;;13.62;11.33;;;;;;;15.68;45.06;98923.94;1734693;83;21169;-55
2021/03/16 08:26:24;;;;;;;16.75;12.20;;;;;;;15.71;45.20;98913.16;1734835;81;21201;-55
2021/03/16 08:29:10;;;;;;;17.55;12.13;;;;;;;15.88;45.20;98903.42;1734588;83;21310;-65
2021/03/16 08:31:58;;;;;;;14.53;10.82;;;;;;;16.05;45.05;98887.38;1732405;81;21173;-56
2021/03/16 08:34:45;;;;;;;15.80;10.85;;;;;;;16.18;44.76;98876.02;1730490;82;21571;-55
2021/03/16 08:37:33;;;;;;;15.55;10.85;;;;;;;16.34;44.87;98883.91;1734550;81;21193;-55
2021/03/16 08:40:23;;;;;;;15.05;10.50;;;;;;;16.63;44.45;98877.33;1734124;81;21146;-56
2021/03/16 08:43:10;;;;;;;14.10;10.45;;;;;;;17.02;43.83;98869.17;1729241;82;21177;-55
2021/03/16 08:45:57;;;;;;;15.38;9.85;;;;;;;17.34;43.55;98866.25;1734250;81;21340;-64
2021/03/16 08:48:46;;;;;;;16.40;10.75;;;;;;;17.61;42.63;98858.77;1735711;82;21129;-63
2021/03/16 08:51:33;;;;;;;13.03;9.53;;;;;;;17.77;42.34;98853.75;1734999;81;21182;-62
2021/03/16 08:54:29;;;;;;;14.05;9.15;;;;;;;17.86;41.62;98861.12;1742538;82;21312;-57
2021/03/16 08:57:22;;;;;;;12.88;9.15;;;;;;;17.98;41.64;98861.64;1754993;81;21158;-63
2021/03/16 09:00:10;;;;;;;13.20;9.50;;;;;;;18.11;41.52;98872.33;1768210;81;21157;-63
2021/03/16 09:02:56;;;;;;;13.40;10.13;;;;;;;18.29;41.08;98872.05;1767943;81;21176;-63
2021/03/16 09:05:43;;;;;;;11.73;9.98;;;;;;;18.45;41.00;98866.52;1741040;81;21162;-63
2021/03/16 09:08:29;;;;;;;12.98;8.75;;;;;;;18.55;40.06;98856.06;1728487;83;21146;-63
2021/03/16 09:11:35;;;;;;;13.50;8.98;;;;;;;18.54;39.82;98848.56;1732747;81;21172;-55
2021/03/16 09:14:22;;;;;;;13.88;9.60;;;;;;;18.47;39.89;98845.95;1731754;81;21323;-57
2021/03/16 09:17:08;;;;;;;11.60;9.00;;;;;;;18.50;40.08;98850.20;1734829;81;21150;-55
2021/03/16 09:19:55;;;;;;;10.45;8.55;;;;;;;18.52;40.56;98851.81;1715056;82;21147;-62
2021/03/16 09:22:41;;;;;;;12.63;9.03;;;;;;;18.72;40.54;98855.74;1737714;82;21150;-56
2021/03/16 09:25:34;;;;;;;13.80;8.65;;;;;;;18.99;40.55;98872.09;1734512;83;21177;-56
2021/03/16 09:28:22;;;;;;;13.30;9.13;;;;;;;19.28;40.06;98878.95;1734730;81;21188;-56
2021/03/16 09:31:08;;;;;;;14.78;9.55;;;;;;;19.57;39.70;98877.30;1735093;81;21154;-63
2021/03/16 09:33:55;;;;;;;12.70;8.80;;;;;;;19.78;39.03;98872.67;1737091;82;21167;-63
2021/03/16 09:36:41;;;;;;;15.23;8.85;;;;;;;19.90;38.53;98873.10;1748466;81;21613;-55
2021/03/16 09:39:23;;;;;;;11.35;8.00;;;;;;;20.04;38.26;98883.60;1829932;77;22150;-55
2021/03/16 09:41:57;;;;;;;13.00;9.25;;;;;;;20.05;38.14;98892.48;1771523;78;21134;-65
2021/03/16 09:44:38;;;;;;;13.43;8.03;;;;;;;20.06;37.97;98887.51;1731998;81;21174;-56
2021/03/16 09:47:06;;;;;;;10.85;8.30;;;;;;;20.05;37.88;98890.64;1762042;81;21158;-64
2021/03/16 09:49:38;;;;;;;11.35;8.35;;;;;;;20.03;37.64;98887.73;1761612;81;21170;-62
2021/03/16 09:52:10;;;;;;;13.10;9.45;;;;;;;20.03;37.86;98884.56;1759331;81;21162;-55
2021/03/16 09:54:44;;;;;;;13.75;8.23;;;;;;;20.05;37.85;98892.48;1762097;81;21154;-56
2021/03/16 09:57:14;;;;;;;11.12;8.30;;;;;;;20.17;38.13;98893.36;1761733;81;21177;-63
2021/03/16 09:59:44;;;;;;;11.68;7.95;;;;;;;20.37;38.01;98887.83;1761909;81;21181;-64
2021/03/16 10:02:13;;;;;;;11.23;7.57;;;;;;;20.58;37.58;98877.30;1757926;81;21208;-55
2021/03/16 10:04:51;;;;;;;12.75;8.03;;;;;;;20.77;37.06;98878.06;1718890;83;21116;-62
2021/03/16 10:07:27;;;;;;;9.80;7.78;;;;;;;20.96;36.84;98880.63;1701426;83;21194;-63
2021/03/16 10:10:11;;;;;;;11.00;7.78;;;;;;;21.05;36.95;98876.36;1705568;83;21590;-63
2021/03/16 10:12:54;;;;;;;12.65;8.15;;;;;;;21.29;36.71;98872.67;1700365;83;21325;-62
2021/03/16 10:15:40;;;;;;;12.90;9.00;;;;;;;21.56;36.41;98864.20;1667766;86;21154;-57
2021/03/16 10:18:11;;;;;;;11.73;8.00;;;;;;;21.82;36.11;98858.57;1688161;84;21220;-64
2021/03/16 10:20:45;;;;;;;12.10;7.75;;;;;;;22.04;35.59;98858.09;1715706;83;21137;-54
2021/03/16 10:23:21;;;;;;;13.95;8.48;;;;;;;22.12;34.71;98856.45;1726441;83;21121;-55
2021/03/16 10:25:58;;;;;;;10.45;8.20;;;;;;;22.21;33.69;98857.52;1681514;84;21624;-63
2021/03/16 10:28:41;;;;;;;12.95;8.80;;;;;;;22.14;34.12;98838.41;1675254;84;21194;-64
2021/03/16 10:31:22;;;;;;;12.98;8.03;;;;;;;22.04;34.63;98831.30;1699199;84;21110;-61
2021/03/16 10:33:53;;;;;;;11.22;8.10;;;;;;;21.97;34.94;98829.64;1679707;84;21163;-65
2021/03/16 10:36:22;;;;;;;10.13;7.65;;;;;;;21.98;35.01;98825.48;1699100;83;21183;-56
2021/03/16 10:38:50;;;;;;;14.18;9.28;;;;;;;22.05;34.88;98822.28;1691859;84;21166;-65
2021/03/16 10:41:19;;;;;;;11.78;8.45;;;;;;;22.14;34.77;98816.14;1702043;84;21199;-57
2021/03/16 10:43:47;;;;;;;11.38;7.97;;;;;;;22.24;34.85;98820.21;1702249;84;21209;-64
2021/03/16 10:46:15;;;;;;;11.70;8.00;;;;;;;22.34;34.76;98813.56;1713529;83;21131;-56
2021/03/16 10:48:44;;;;;;;10.23;7.83;;;;;;;22.43;34.63;98815.01;1701970;84;21142;-63
2021/03/16 10:51:12;;;;;;;11.38;7.80;;;;;;;22.53;34.48;98811.02;1701420;84;21193;-56
2021/03/16 10:53:40;;;;;;;14.60;8.58;;;;;;;22.73;34.24;98805.75;1701664;84;21165;-58
2021/03/16 10:56:08;;;;;;;10.85;8.30;;;;;;;22.83;34.02;98801.75;1702396;83;21138;-64
2021/03/16 10:58:36;;;;;;;11.60;7.95;;;;;;;22.89;33.61;98797.19;1726634;83;21200;-56
2021/03/16 11:01:04;;;;;;;12.47;8.10;;;;;;;22.83;33.31;98798.56;1715333;84;21182;-65
2021/03/16 11:03:33;;;;;;;13.43;8.05;;;;;;;22.78;32.93;98797.29;1727432;83;21185;-56
2021/03/16 11:06:03;;;;;;;10.95;8.33;;;;;;;22.41;33.13;98794.63;1702962;84;21153;-56
2021/03/16 11:08:33;;;;;;;14.03;8.45;;;;;;;22.10;33.41;98786.07;1701732;84;21162;-57
2021/03/16 11:11:01;;;;;;;10.78;8.20;;;;;;;21.84;33.64;98797.19;1686721;85;21170;-56
2021/03/16 11:13:29;;;;;;;12.98;8.20;;;;;;;21.61;34.06;98791.06;1710751;83;22095;-56
2021/03/16 11:15:58;;;;;;;10.48;7.65;;;;;;;21.39;34.32;98798.22;1710401;83;21094;-56
2021/03/16 11:18:27;;;;;;;11.43;7.28;;;;;;;21.20;34.57;98794.84;1717059;83;21200;-56
2021/03/16 11:20:55;;;;;;;11.68;7.35;;;;;;;21.07;34.94;98795.52;1714322;83;21146;-64
2021/03/16 11:23:23;;;;;;;11.38;8.15;;;;;;;20.90;35.00;98796.38;1716120;82;21162;-56
2021/03/16 11:25:51;;;;;;;11.38;8.38;;;;;;;20.75;35.20;98793.09;1729207;83;21134;-56
2021/03/16 11:28:19;;;;;;;11.35;7.50;;;;;;;20.61;35.51;98789.32;1714539;83;21178;-56
2021/03/16 11:30:47;;;;;;;12.30;8.38;;;;;;;20.45;35.82;98789.69;1726413;83;21308;-55
2021/03/16 11:33:15;;;;;;;13.98;8.50;;;;;;;20.27;36.02;98778.16;1715023;83;21304;-55
2021/03/16 11:36:02;;;;;;;13.65;7.55;;;;;;;20.14;36.41;98782.75;1729750;83;21102;-56
2021/03/16 11:38:49;;;;;;;13.60;7.92;;;;;;;20.01;37.12;98773.52;1717228;82;21662;-55
2021/03/16 11:41:36;;;;;;;12.37;7.37;;;;;;;19.95;37.35;98767.31;1713940;82;21677;-64
2021/03/16 11:44:23;;;;;;;11.43;7.37;;;;;;;19.91;37.45;98769.34;1667053;85;21156;-65
2021/03/16 11:47:10;;;;;;;11.20;7.58;;;;;;;19.87;37.60;98763.88;1738911;81;21159;-64
2021/03/16 11:49:57;;;;;;;13.35;7.75;;;;;;;19.84;37.64;98757.44;1713856;82;21331;-64
2021/03/16 11:52:43;;;;;;;11.03;7.35;;;;;;;19.76;37.66;98763.34;1680246;85;21663;-56
2021/03/16 11:55:29;;;;;;;13.32;7.95;;;;;;;19.67;37.59;98761.36;1687473;84;21173;-64
2021/03/16 11:58:15;;;;;;;12.47;8.25;;;;;;;19.55;37.65;98763.15;1737769;82;21171;-64
2021/03/16 12:01:02;;;;;;;12.78;8.13;;;;;;;19.43;37.92;98755.59;1692841;85;21176;-63
2021/03/16 12:03:48;;;;;;;12.20;7.53;;;;;;;19.36;38.27;98761.02;1655609;85;21631;-56
2021/03/16 12:06:34;;;;;;;14.60;8.58;;;;;;;19.32;38.34;98757.73;1671551;84;21134;-55
2021/03/16 12:09:21;;;;;;;11.33;8.00;;;;;;;19.26;38.45;98759.03;1711873;84;21139;-63
2021/03/16 12:12:08;;;;;;;15.75;8.00;;;;;;;19.22;38.53;98759.38;1711878;84;21220;-55
2021/03/16 12:14:55;;;;;;;13.13;8.85;;;;;;;19.17;38.65;98753.07;1711944;83;21618;-55
2021/03/16 12:17:41;;;;;;;12.93;8.03;;;;;;;19.12;38.65;98748.55;1662491;85;21187;-55
2021/03/16 12:20:28;;;;;;;12.60;8.98;;;;;;;19.06;38.58;98750.34;1660644;86;21720;-55
2021/03/16 12:23:16;;;;;;;13.35;8.15;;;;;;;18.95;38.75;98743.94;1648378;87;21669;-62
2021/03/16 12:26:02;;;;;;;16.57;7.40;;;;;;;18.88;38.82;98740.02;1671972;85;21708;-63
2021/03/16 12:28:48;;;;;;;13.28;7.60;;;;;;;18.80;38.75;98740.59;1746522;81;21134;-55
2021/03/16 12:31:35;;;;;;;13.78;7.40;;;;;;;18.70;38.88;98740.41;1752425;81;21878;-63